Shideler, Indiana
Current Conditions -  °F | °C
As of 1:12 PM on Sunday 25 Jan 2015 (Local Time) from KMIE Reporting Station
Light Rain Light Rain  
Wind Chill: 26°   Ceiling: 500
Heat Index: 35°   Visibility: 1.7mi
Dew Point: 33°   Wind: 13mph
Humidity: 92%   Direction: 80°E
Pressure: 29.67"   Gusts: NA
Location:  40.3453°N, 85.3353°W
Report Text: KMIE 251812Z 08011KT 1 3/4SM -RA BR BKN005 OVC034 02/01 A2967 RMK AO2 P0001 T00170006
Loading
Personal Weather Stations






























Interactive Weather Map New forecast layout! Learn more

10-Day Weather Forecast

Advertisements
Track Severe Weather on mobile